createdAt,value
2023-01-05T00:03:26.932Z,99636.03
2023-01-05T00:08:36.406Z,99623.25
2023-01-05T00:13:58.292Z,99629.91
2023-01-05T00:19:19.486Z,99638.66
2023-01-05T00:24:22.003Z,99631.41
2023-01-05T00:29:24.523Z,99631.69
2023-01-05T00:34:26.976Z,99631.31
2023-01-05T00:39:29.431Z,99632.19
2023-01-05T00:44:31.907Z,99631.06
2023-01-05T00:49:34.495Z,99627.38
2023-01-05T00:54:36.949Z,99637.06
2023-01-05T00:59:39.943Z,99628.38
2023-01-05T01:04:42.493Z,99627.69
2023-01-05T01:09:44.962Z,99630.34
2023-01-05T01:14:48.595Z,99626.69
2023-01-05T01:19:51.167Z,99629.81
2023-01-05T01:24:53.697Z,99631.31
2023-01-05T01:29:59.227Z,99617.03
2023-01-05T01:35:01.748Z,99614.78
2023-01-05T01:40:05.461Z,99602.56
2023-01-05T01:45:21.681Z,99605.31
2023-01-05T01:50:24.326Z,99603.19
2023-01-05T01:55:27.733Z,99596.69
2023-01-05T02:00:30.345Z,99586.59
2023-01-05T02:05:33.459Z,99589.53
2023-01-05T02:10:49.076Z,99583.81
2023-01-05T02:16:02.205Z,99577.09
2023-01-05T02:21:23.466Z,99577.44
2023-01-05T02:26:47.513Z,99571.50
2023-01-05T02:31:58.229Z,99567.50
2023-01-05T02:37:04.945Z,99564.88
2023-01-05T02:42:14.480Z,99562.28
2023-01-05T02:47:28.269Z,99560.69
2023-01-05T02:52:36.391Z,99558.19
2023-01-05T02:57:47.423Z,99548.34
2023-01-05T03:02:56.313Z,99554.09
2023-01-05T03:08:08.333Z,99537.00
2023-01-05T03:13:34.704Z,99535.50
2023-01-05T03:19:00.318Z,99539.50
2023-01-05T03:24:22.645Z,99535.16
2023-01-05T03:29:46.258Z,99525.34
2023-01-05T03:35:12.080Z,99516.19
2023-01-05T03:40:22.753Z,99515.88
2023-01-05T03:45:28.960Z,99507.22
2023-01-05T03:50:31.550Z,99498.19
2023-01-05T03:55:35.429Z,99489.88
2023-01-05T04:00:38.058Z,99485.53
2023-01-05T04:05:44.721Z,99475.94
2023-01-05T04:10:47.779Z,99463.03
2023-01-05T04:15:50.532Z,99463.34
2023-01-05T04:20:53.846Z,99442.13
2023-01-05T04:25:57.604Z,99432.59
2023-01-05T04:31:00.576Z,99421.50
2023-01-05T04:36:05.441Z,99412.75
2023-01-05T04:41:07.975Z,99403.59
2023-01-05T04:46:10.668Z,99391.75
2023-01-05T04:51:13.551Z,99395.59
2023-01-05T04:56:16.192Z,99382.78
2023-01-05T05:01:20.526Z,99377.03
2023-01-05T05:06:27.520Z,99374.50
2023-01-05T05:11:31.786Z,99367.19
2023-01-05T05:16:34.357Z,99356.25
2023-01-05T05:21:37.630Z,99325.78
2023-01-05T05:26:40.577Z,99339.50
2023-01-05T05:31:43.402Z,99332.03
2023-01-05T05:36:45.873Z,99334.47
2023-01-05T05:41:48.428Z,99314.88
2023-01-05T05:46:51.151Z,99280.53
2023-01-05T05:51:53.698Z,99302.72
2023-01-05T05:56:56.206Z,99285.97
2023-01-05T06:01:58.827Z,99276.59
2023-01-05T06:07:01.331Z,99263.69
2023-01-05T06:12:03.939Z,99259.06
2023-01-05T06:17:06.529Z,99250.59
2023-01-05T06:22:08.979Z,99253.34
2023-01-05T06:27:11.467Z,99244.41
2023-01-05T06:32:13.926Z,99232.19
2023-01-05T06:37:16.344Z,99224.78
2023-01-05T06:42:23.280Z,99217.63
2023-01-05T06:47:26.119Z,99206.72
2023-01-05T06:52:28.572Z,99185.09
2023-01-05T06:57:31.010Z,99177.84
2023-01-05T07:02:33.587Z,99170.34
2023-01-05T07:07:36.313Z,99156.75
2023-01-05T07:12:39.175Z,99150.88
2023-01-05T07:17:41.643Z,99155.78
2023-01-05T07:22:44.052Z,99143.44
2023-01-05T07:27:50.535Z,99136.22
2023-01-05T07:32:53.070Z,99102.06
2023-01-05T07:37:58.858Z,99132.72
2023-01-05T07:43:01.625Z,99117.22
2023-01-05T07:48:04.293Z,99115.94
2023-01-05T07:53:06.768Z,99106.09
2023-01-05T07:58:09.244Z,99096.88
2023-01-05T08:03:11.619Z,99080.41
2023-01-05T08:08:19.073Z,99077.19
2023-01-05T08:13:43.647Z,99076.50
2023-01-05T08:18:46.204Z,99074.88
2023-01-05T08:23:49.816Z,99073.31
2023-01-05T08:28:52.785Z,99060.00
2023-01-05T08:33:56.102Z,99057.00
2023-01-05T08:38:59.049Z,99052.41
2023-01-05T08:44:02.019Z,99049.66
2023-01-05T08:49:07.528Z,99050.16
2023-01-05T08:54:09.951Z,99044.09
2023-01-05T08:59:13.335Z,99039.00
2023-01-05T09:04:16.364Z,99039.47
2023-01-05T09:09:18.963Z,99038.47
2023-01-05T09:14:21.530Z,99036.19
2023-01-05T09:19:24.180Z,99033.84
2023-01-05T09:24:26.824Z,99033.09
2023-01-05T09:29:29.318Z,99023.09
2023-01-05T09:34:32.097Z,99027.91
2023-01-05T09:39:34.599Z,99028.59
2023-01-05T09:44:38.119Z,99032.56
2023-01-05T09:49:40.656Z,99028.88
2023-01-05T09:54:43.133Z,99029.16
2023-01-05T09:59:52.486Z,99020.22
2023-01-05T10:04:56.535Z,99017.91
2023-01-05T10:10:00.125Z,99012.66
2023-01-05T10:15:04.730Z,99013.28
2023-01-05T10:20:14.608Z,99012.47
2023-01-05T10:25:22.427Z,99012.47
2023-01-05T10:30:26.216Z,99023.50
2023-01-05T10:36:00.306Z,99015.22
2023-01-05T10:41:06.491Z,99015.31
2023-01-05T10:51:34.251Z,99007.66
2023-01-05T10:56:36.805Z,99011.00
2023-01-05T11:01:39.453Z,99000.91
2023-01-05T11:06:42.013Z,99002.81
2023-01-05T11:11:44.879Z,99004.38
2023-01-05T11:16:48.465Z,99007.28
2023-01-05T11:21:54.032Z,99004.00
2023-01-05T11:27:03.783Z,99011.94
2023-01-05T11:32:06.893Z,99011.78
2023-01-05T11:37:12.489Z,99014.47
2023-01-05T11:42:20.020Z,99024.56
2023-01-05T11:47:27.235Z,99018.97
2023-01-05T11:52:37.169Z,99019.47
2023-01-05T11:57:39.698Z,99032.41
2023-01-05T12:03:05.491Z,99040.66
2023-01-05T12:08:12.543Z,99033.78
2023-01-05T12:13:29.034Z,99039.59
2023-01-05T12:18:49.928Z,99043.28
2023-01-05T12:24:11.031Z,99038.25
2023-01-05T12:31:06.403Z,99042.13
2023-01-05T12:35:17.804Z,99052.59
2023-01-05T12:40:24.110Z,99052.22
2023-01-05T12:45:45.035Z,99063.94
2023-01-05T12:50:49.223Z,99064.69
2023-01-05T12:55:56.068Z,99077.53
2023-01-05T13:00:58.710Z,99078.69
2023-01-05T13:06:07.208Z,99085.41
2023-01-05T13:11:28.031Z,99094.34
2023-01-05T13:16:37.352Z,99096.91
2023-01-05T13:21:40.295Z,99101.34
2023-01-05T13:26:42.749Z,99103.44
2023-01-05T13:31:48.237Z,99112.09
2023-01-05T13:36:59.883Z,99105.38
2023-01-05T13:42:23.656Z,99111.59
2023-01-05T13:47:29.346Z,99121.09
2023-01-05T13:52:38.589Z,99124.69
2023-01-05T13:57:41.618Z,99120.56
2023-01-05T14:02:44.979Z,99130.78
2023-01-05T14:07:47.440Z,99143.00
2023-01-05T14:12:50.668Z,99154.59
2023-01-05T14:17:56.262Z,99152.03
2023-01-05T14:22:58.854Z,99157.59
2023-01-05T14:28:16.499Z,99151.38
2023-01-05T14:33:19.893Z,99167.78
2023-01-05T14:38:23.344Z,99175.25
2023-01-05T14:43:32.880Z,99192.34
2023-01-05T14:49:07.680Z,99195.63
2023-01-05T14:54:10.350Z,99198.47
2023-01-05T14:59:23.826Z,99219.78
2023-01-05T15:04:28.506Z,99216.53
2023-01-05T15:09:37.638Z,99225.91
2023-01-05T15:14:47.342Z,99233.97
2023-01-05T15:20:09.668Z,99244.44
2023-01-05T15:25:30.979Z,99255.63
2023-01-05T15:30:36.654Z,99264.91
2023-01-05T15:35:50.133Z,99277.09
2023-01-05T15:40:57.826Z,99288.59
2023-01-05T15:46:00.732Z,99296.94
2023-01-05T15:51:03.302Z,99301.63
2023-01-05T15:56:07.171Z,99309.06
2023-01-05T16:01:15.694Z,99318.50
2023-01-05T16:06:20.543Z,99327.97
2023-01-05T16:11:27.242Z,99336.97
2023-01-05T16:21:55.264Z,99353.97
2023-01-05T16:26:57.768Z,99364.59
2023-01-05T16:32:00.410Z,99373.91
2023-01-05T16:37:02.945Z,99384.59
2023-01-05T16:42:25.142Z,99392.13
2023-01-05T16:47:33.637Z,99395.16
2023-01-05T16:52:46.050Z,99407.59
2023-01-05T17:01:48.378Z,99415.28
2023-01-05T17:06:51.856Z,99420.69
2023-01-05T17:11:54.691Z,99424.81
2023-01-05T17:17:02.852Z,99448.59
2023-01-05T17:22:07.704Z,99438.03
2023-01-05T17:32:20.780Z,99412.56
2023-01-05T17:37:23.660Z,99456.38
2023-01-05T17:42:44.315Z,99468.78
2023-01-05T17:47:47.699Z,99468.75
2023-01-05T17:52:50.590Z,99480.75
2023-01-05T17:57:53.242Z,99470.72
2023-01-05T18:02:56.420Z,99485.81
2023-01-05T18:07:59.450Z,99497.72
2023-01-05T18:13:02.279Z,99499.59
2023-01-05T18:18:05.123Z,99501.22
2023-01-05T18:23:08.676Z,99502.78
2023-01-05T18:28:11.486Z,99513.47
2023-01-05T18:33:14.152Z,99476.84
2023-01-05T18:38:17.087Z,99522.66
2023-01-05T18:43:19.834Z,99532.22
2023-01-05T18:48:23.029Z,99540.94
2023-01-05T18:53:25.873Z,99540.47
2023-01-05T18:58:28.826Z,99542.13
2023-01-05T19:03:31.783Z,99558.16
2023-01-05T19:08:34.665Z,99553.94
2023-01-05T19:13:38.110Z,99557.66
2023-01-05T19:18:41.048Z,99562.41
2023-01-05T19:23:43.783Z,99569.94
2023-01-05T19:28:46.449Z,99554.06
2023-01-05T19:33:50.021Z,99578.84
2023-01-05T19:38:55.649Z,99592.34
2023-01-05T19:43:58.530Z,99597.56
2023-01-05T19:49:01.352Z,99599.28
2023-01-05T19:54:05.146Z,99605.88
2023-01-05T19:59:13.491Z,99612.94
2023-01-05T20:04:16.391Z,99621.22
2023-01-05T20:09:19.811Z,99635.28
2023-01-05T20:14:27.640Z,99632.78
2023-01-05T20:19:31.599Z,99618.53
2023-01-05T20:24:36.517Z,99637.41
2023-01-05T20:29:40.815Z,99642.59
2023-01-05T20:34:45.416Z,99647.47
2023-01-05T20:39:47.861Z,99658.13
2023-01-05T20:44:51.173Z,99659.63
2023-01-05T20:49:53.865Z,99684.47
2023-01-05T20:54:56.829Z,99644.63
2023-01-05T20:59:59.405Z,99681.53
2023-01-05T21:05:02.290Z,99652.56
2023-01-05T21:10:05.460Z,99667.59
2023-01-05T21:15:08.721Z,99676.78
2023-01-05T21:20:11.458Z,99660.91
2023-01-05T21:25:14.573Z,99663.38
2023-01-05T21:30:17.785Z,99658.16
2023-01-05T21:35:20.472Z,99660.66
2023-01-05T21:40:24.359Z,99661.41
2023-01-05T21:45:27.106Z,99663.00
2023-01-05T21:50:48.412Z,99659.66
2023-01-05T21:56:09.845Z,99663.91
2023-01-05T22:01:12.890Z,99666.38
2023-01-05T22:06:15.640Z,99674.31
2023-01-05T22:11:18.329Z,99678.38
2023-01-05T22:16:21.093Z,99686.06
2023-01-05T22:21:23.856Z,99690.53
2023-01-05T22:26:26.601Z,99710.75
2023-01-05T22:31:30.624Z,99707.84
2023-01-05T22:36:33.348Z,99708.75
2023-01-05T22:41:36.192Z,99709.47
2023-01-05T22:46:38.835Z,99714.03
2023-01-05T22:51:41.624Z,99723.00
2023-01-05T22:56:44.225Z,99733.38
2023-01-05T23:01:48.075Z,99743.16
2023-01-05T23:06:50.723Z,99750.78
2023-01-05T23:11:53.642Z,99750.78
2023-01-05T23:16:56.408Z,99761.78
2023-01-05T23:22:02.202Z,99768.41
2023-01-05T23:27:04.819Z,99776.91
2023-01-05T23:32:07.575Z,99775.81
2023-01-05T23:37:10.306Z,99780.91
2023-01-05T23:42:32.938Z,99781.97
2023-01-05T23:47:35.561Z,99793.25
2023-01-05T23:52:38.225Z,99791.41
2023-01-05T23:57:40.873Z,99786.47
